createdAt,value
2019-02-22T00:03:51.390Z,9.43
2019-02-22T00:08:59.188Z,8.90
2019-02-22T00:14:03.825Z,8.63
2019-02-22T00:19:09.667Z,8.63
2019-02-22T00:24:14.506Z,9.67
2019-02-22T00:29:19.257Z,9.77
2019-02-22T00:34:24.621Z,9.23
2019-02-22T00:39:30.296Z,9.25
2019-02-22T00:44:35.326Z,9.43
2019-02-22T00:49:40.477Z,9.80
2019-02-22T00:54:44.732Z,9.93
2019-02-22T00:59:49.610Z,9.13
2019-02-22T01:04:56.674Z,9.20
2019-02-22T01:10:01.302Z,9.10
2019-02-22T01:15:08.112Z,9.30
2019-02-22T01:20:12.971Z,9.73
2019-02-22T01:25:17.509Z,9.47
2019-02-22T01:30:22.541Z,8.77
2019-02-22T01:35:28.808Z,10.50
2019-02-22T01:40:43.187Z,8.57
2019-02-22T01:45:40.829Z,8.67
2019-02-22T01:50:46.263Z,9.60
2019-02-22T01:55:50.924Z,10.87
2019-02-22T02:00:55.579Z,10.00
2019-02-22T02:06:00.798Z,10.40
2019-02-22T02:11:05.268Z,10.67
2019-02-22T02:16:10.489Z,9.87
2019-02-22T02:21:16.254Z,10.80
2019-02-22T02:26:21.987Z,10.80
2019-02-22T02:31:26.787Z,9.97
2019-02-22T02:36:32.205Z,10.43
2019-02-22T02:41:37.029Z,10.33
2019-02-22T02:46:43.854Z,10.03
2019-02-22T02:51:48.517Z,11.00
2019-02-22T02:56:54.279Z,10.10
2019-02-22T03:01:59.542Z,10.60
2019-02-22T03:07:12.108Z,10.27
2019-02-22T03:12:17.508Z,11.87
2019-02-22T03:17:22.596Z,11.67
2019-02-22T03:22:26.962Z,11.40
2019-02-22T03:27:31.784Z,11.73
2019-02-22T03:32:36.473Z,10.23
2019-02-22T03:37:41.014Z,10.67
2019-02-22T03:42:48.305Z,10.53
2019-02-22T03:47:53.428Z,10.50
2019-02-22T03:53:16.715Z,10.67
2019-02-22T03:58:22.696Z,11.10
2019-02-22T04:03:27.874Z,10.40
2019-02-22T04:08:32.551Z,10.27
2019-02-22T04:13:37.650Z,10.47
2019-02-22T04:18:42.038Z,10.33
2019-02-22T04:23:49.411Z,11.65
2019-02-22T04:28:56.415Z,10.90
2019-02-22T04:34:04.011Z,11.67
2019-02-22T04:39:08.561Z,10.97
2019-02-22T04:44:13.433Z,10.60
2019-02-22T04:49:17.772Z,10.93
2019-02-22T04:54:26.349Z,11.47
2019-02-22T04:59:33.101Z,11.97
2019-02-22T05:04:38.007Z,11.93
2019-02-22T05:09:42.853Z,11.37
2019-02-22T05:14:48.226Z,11.60
2019-02-22T05:19:55.078Z,11.17
2019-02-22T05:25:00.772Z,9.90
2019-02-22T05:30:05.944Z,10.33
2019-02-22T05:35:12.204Z,11.67
2019-02-22T05:40:16.917Z,10.15
2019-02-22T05:45:21.716Z,12.13
2019-02-22T05:50:28.950Z,11.80
2019-02-22T05:55:34.681Z,11.50
2019-02-22T06:00:41.769Z,10.93
2019-02-22T06:05:48.280Z,11.77
2019-02-22T06:10:53.820Z,12.47
2019-02-22T06:15:59.689Z,12.00
2019-02-22T06:21:05.383Z,12.73
2019-02-22T06:26:11.480Z,14.60
2019-02-22T06:31:15.908Z,13.07
2019-02-22T06:36:32.278Z,15.90
2019-02-22T06:41:37.268Z,13.97
2019-02-22T06:46:42.364Z,17.03
2019-02-22T06:51:47.145Z,15.98
2019-02-22T06:56:52.627Z,15.97
2019-02-22T07:01:57.562Z,17.07
2019-02-22T07:07:02.566Z,19.47
2019-02-22T07:12:15.631Z,19.53
2019-02-22T07:17:21.933Z,18.65
2019-02-22T07:22:26.276Z,19.13
2019-02-22T07:27:31.303Z,19.53
2019-02-22T07:32:37.601Z,17.27
2019-02-22T07:37:42.336Z,20.10
2019-02-22T07:42:47.188Z,20.02
2019-02-22T07:47:52.175Z,21.97
2019-02-22T07:52:56.575Z,20.37
2019-02-22T07:58:01.401Z,19.40
2019-02-22T08:03:05.728Z,22.43
2019-02-22T08:08:10.133Z,19.20
2019-02-22T08:13:19.703Z,19.27
2019-02-22T08:18:21.904Z,20.27
2019-02-22T08:23:26.611Z,20.37
2019-02-22T08:28:30.989Z,20.90
2019-02-22T08:33:35.593Z,24.03
2019-02-22T08:38:40.236Z,22.37
2019-02-22T08:43:44.989Z,24.07
2019-02-22T08:48:49.857Z,23.30
2019-02-22T08:53:54.583Z,24.43
2019-02-22T08:58:59.235Z,21.53
2019-02-22T09:04:03.700Z,23.30
2019-02-22T09:09:08.415Z,21.80
2019-02-22T09:14:14.044Z,22.13
2019-02-22T09:19:18.860Z,22.13
2019-02-22T09:24:23.662Z,22.47
2019-02-22T09:29:28.637Z,21.00
2019-02-22T09:34:35.354Z,19.73
2019-02-22T09:39:40.375Z,21.43
2019-02-22T09:44:45.524Z,18.63
2019-02-22T09:49:51.405Z,19.25
2019-02-22T09:54:56.108Z,17.90
2019-02-22T10:00:02.101Z,18.60
2019-02-22T10:05:06.899Z,18.00
2019-02-22T10:10:11.322Z,17.90
2019-02-22T10:15:18.948Z,16.45
2019-02-22T10:20:23.696Z,15.10
2019-02-22T10:25:28.100Z,18.20
2019-02-22T10:30:32.511Z,14.03
2019-02-22T10:35:37.811Z,15.47
2019-02-22T10:40:42.915Z,14.00
2019-02-22T10:45:48.342Z,12.50
2019-02-22T10:50:52.820Z,13.10
2019-02-22T10:55:57.647Z,12.27
2019-02-22T11:01:02.106Z,12.73
2019-02-22T11:06:07.516Z,12.70
2019-02-22T11:11:12.047Z,12.60
2019-02-22T11:16:18.535Z,12.57
2019-02-22T11:21:22.861Z,11.50
2019-02-22T11:26:27.578Z,12.30
2019-02-22T11:31:32.969Z,10.97
2019-02-22T11:36:37.602Z,10.87
2019-02-22T11:41:42.994Z,11.67
2019-02-22T11:46:47.495Z,11.53
2019-02-22T11:51:52.058Z,10.78
2019-02-22T11:56:57.241Z,10.90
2019-02-22T12:02:01.614Z,12.63
2019-02-22T12:07:06.117Z,11.53
2019-02-22T12:12:10.975Z,11.90
2019-02-22T12:17:15.916Z,12.53
2019-02-22T12:22:20.333Z,12.40
2019-02-22T12:27:25.730Z,12.57
2019-02-22T12:32:30.743Z,13.13
2019-02-22T12:37:51.772Z,12.17
2019-02-22T12:42:57.331Z,12.45
2019-02-22T12:48:03.561Z,12.83
2019-02-22T12:53:10.063Z,13.60
2019-02-22T12:58:15.696Z,16.00
2019-02-22T13:03:21.388Z,12.93
2019-02-22T13:08:28.995Z,12.80
2019-02-22T13:13:33.652Z,11.23
2019-02-22T13:18:39.137Z,8.98
2019-02-22T13:23:44.398Z,8.00
2019-02-22T13:28:49.124Z,9.37
2019-02-22T13:33:55.599Z,7.53
2019-02-22T13:39:00.566Z,8.47
2019-02-22T13:44:06.109Z,7.90
2019-02-22T13:49:10.836Z,8.47
2019-02-22T13:54:16.687Z,9.13
2019-02-22T13:59:21.746Z,9.17
2019-02-22T14:04:26.767Z,7.90
2019-02-22T14:09:31.507Z,9.50
2019-02-22T14:14:35.888Z,7.37
2019-02-22T14:19:40.679Z,7.43
2019-02-22T14:24:45.564Z,7.43
2019-02-22T14:29:50.401Z,7.50
2019-02-22T14:34:55.187Z,7.12
2019-02-22T14:40:03.470Z,7.67
2019-02-22T14:45:10.723Z,6.30
2019-02-22T14:50:15.831Z,6.20
2019-02-22T14:55:22.344Z,5.87
2019-02-22T15:00:26.813Z,5.70
2019-02-22T15:05:31.628Z,6.37
2019-02-22T15:10:36.332Z,5.63
2019-02-22T15:16:01.791Z,5.43
2019-02-22T15:21:05.028Z,7.30
2019-02-22T15:26:09.987Z,6.83
2019-02-22T15:31:14.809Z,6.90
2019-02-22T15:36:19.464Z,6.77
2019-02-22T15:41:23.978Z,7.42
2019-02-22T15:46:29.164Z,6.70
2019-02-22T15:51:33.645Z,6.37
2019-02-22T15:56:38.792Z,6.70
2019-02-22T16:01:54.486Z,6.33
2019-02-22T16:06:53.898Z,6.97
2019-02-22T16:12:09.010Z,6.65
2019-02-22T16:17:13.798Z,8.53
2019-02-22T16:22:18.261Z,7.40
2019-02-22T16:27:23.271Z,6.37
2019-02-22T16:32:29.765Z,5.50
2019-02-22T16:37:34.177Z,5.80
2019-02-22T16:42:39.507Z,5.37
2019-02-22T16:47:44.964Z,6.07
2019-02-22T16:52:49.992Z,6.50
2019-02-22T16:57:55.211Z,5.10
2019-02-22T17:03:00.307Z,5.27
2019-02-22T17:08:07.504Z,5.00
2019-02-22T17:13:12.461Z,5.57
2019-02-22T17:18:17.538Z,5.53
2019-02-22T17:23:23.557Z,6.10
2019-02-22T17:28:28.039Z,15.43
2019-02-22T17:33:34.583Z,9.70
2019-02-22T17:38:39.611Z,7.47
2019-02-22T17:43:44.446Z,6.30
2019-02-22T17:48:54.059Z,5.33
2019-02-22T17:53:59.566Z,4.93
2019-02-22T17:59:04.472Z,5.63
2019-02-22T18:04:13.146Z,5.87
2019-02-22T18:09:18.954Z,7.23
2019-02-22T18:14:23.733Z,7.23
2019-02-22T18:19:31.822Z,6.87
2019-02-22T18:24:36.230Z,7.03
2019-02-22T18:29:42.254Z,12.87
2019-02-22T18:34:47.097Z,8.57
2019-02-22T18:39:52.676Z,8.77
2019-02-22T18:44:57.533Z,9.80
2019-02-22T18:50:03.081Z,11.23
2019-02-22T18:55:08.508Z,10.73
2019-02-22T19:00:16.126Z,10.10
2019-02-22T19:05:20.650Z,10.13
2019-02-22T19:10:25.422Z,12.43
2019-02-22T19:15:30.454Z,11.30
2019-02-22T19:20:35.358Z,12.73
2019-02-22T19:25:40.227Z,11.37
2019-02-22T19:30:46.182Z,10.27
2019-02-22T19:35:53.242Z,13.33
2019-02-22T19:40:58.282Z,10.07
2019-02-22T19:46:02.937Z,8.40
2019-02-22T19:51:07.330Z,9.10
2019-02-22T19:56:12.145Z,10.20
2019-02-22T20:01:17.898Z,8.97
2019-02-22T20:06:22.799Z,8.90
2019-02-22T20:11:27.848Z,10.07
2019-02-22T20:16:33.021Z,9.90
2019-02-22T20:21:37.508Z,12.67
2019-02-22T20:26:42.882Z,10.97
2019-02-22T20:31:51.391Z,10.53
2019-02-22T20:36:56.746Z,8.35
2019-02-22T20:42:03.612Z,7.47
2019-02-22T20:47:09.469Z,8.40
2019-02-22T20:52:14.856Z,8.97
2019-02-22T20:57:20.124Z,8.07
2019-02-22T21:02:25.494Z,8.63
2019-02-22T21:07:30.679Z,7.77
2019-02-22T21:12:35.617Z,8.23
2019-02-22T21:17:40.481Z,8.73
2019-02-22T21:22:46.396Z,9.50
2019-02-22T21:27:52.247Z,9.47
2019-02-22T21:32:56.823Z,11.60
2019-02-22T21:38:01.700Z,11.87
2019-02-22T21:43:06.347Z,13.90
2019-02-22T21:48:11.528Z,12.00
2019-02-22T21:53:19.850Z,11.40
2019-02-22T21:58:25.122Z,10.83
2019-02-22T22:03:30.149Z,10.65
2019-02-22T22:08:34.681Z,9.50
2019-02-22T22:13:39.574Z,11.27
2019-02-22T22:18:46.834Z,12.23
2019-02-22T22:23:51.224Z,11.43
2019-02-22T22:28:57.258Z,11.10
2019-02-22T22:34:02.411Z,9.97
2019-02-22T22:39:08.789Z,12.37
2019-02-22T22:44:13.554Z,13.47
2019-02-22T22:49:18.156Z,10.93
2019-02-22T22:54:23.463Z,10.63
2019-02-22T22:59:28.198Z,10.77
2019-02-22T23:04:33.261Z,11.80
2019-02-22T23:09:37.868Z,12.03
2019-02-22T23:14:44.839Z,11.83
2019-02-22T23:19:49.618Z,11.87
2019-02-22T23:24:54.623Z,11.50
2019-02-22T23:30:00.337Z,9.73
2019-02-22T23:35:05.630Z,10.53
2019-02-22T23:40:10.204Z,10.97
2019-02-22T23:45:15.315Z,11.57
2019-02-22T23:50:20.941Z,11.07
2019-02-22T23:55:26.058Z,11.83
